Time;durP1;ratioP1;P1;durP2;ratioP2;P2;SDS_P1;SDS_P2;PMS_P1;PMS_P2;Temp;Humidity;BMP_temperature;BMP_pressure;BME280_temperature;BME280_humidity;BME280_pressure;Samples;Min_cycle;Max_cycle;Signal;HPM_P1;HPM_P2
2022/01/26 00:07:40;;;;;;;15.75;10.78;;;;;;;3.44;79.37;101462.48;2100136;83;30513;-60
2022/01/26 00:10:42;;;;;;;19.17;11.22;;;;;;;3.45;79.39;101467.33;2108618;83;27747;-60
2022/01/26 00:13:44;;;;;;;16.87;11.40;;;;;;;3.44;79.38;101461.17;2108520;84;28491;-59
2022/01/26 00:16:46;;;;;;;19.55;12.35;;;;;;;3.44;79.42;101457.19;2106324;84;30993;-60
2022/01/26 00:19:54;;;;;;;17.07;12.33;;;;;;;3.43;79.39;101452.78;2106730;84;33384;-59
2022/01/26 00:26:27;;;;;;;20.20;13.20;;;;;;;3.42;79.34;101456.73;2109764;84;27672;-60
2022/01/26 00:38:39;;;;;;;16.97;11.80;;;;;;;3.37;79.39;101455.88;2115021;84;30518;-60
2022/01/26 00:41:41;;;;;;;17.02;11.43;;;;;;;3.37;79.40;101455.88;2115411;84;27674;-61
2022/01/26 00:44:46;;;;;;;16.95;11.25;;;;;;;3.36;79.30;101458.08;2115701;84;29037;-61
2022/01/26 00:47:46;;;;;;;18.55;10.82;;;;;;;3.34;79.38;101446.14;2114108;84;31391;-60
2022/01/26 00:50:52;;;;;;;15.72;11.08;;;;;;;3.33;79.34;101450.58;2113334;84;34128;-61
2022/01/26 00:54:00;;;;;;;16.85;11.20;;;;;;;3.33;79.37;101447.92;2170999;81;29344;-60
2022/01/26 00:56:57;;;;;;;16.57;9.80;;;;;;;3.32;79.36;101443.52;2168487;81;27588;-60
2022/01/26 00:59:59;;;;;;;14.70;9.80;;;;;;;3.32;79.35;101432.92;2137283;83;29848;-60
2022/01/26 01:03:01;;;;;;;17.25;10.48;;;;;;;3.32;79.30;101437.31;2137072;82;31235;-60
2022/01/26 01:09:11;;;;;;;15.25;10.85;;;;;;;3.30;79.34;101431.17;2061514;86;29896;-60
2022/01/26 01:12:12;;;;;;;18.02;10.60;;;;;;;3.31;79.36;101427.64;2067030;86;28402;-60
2022/01/26 01:15:15;;;;;;;17.50;11.08;;;;;;;3.32;79.39;101434.67;2066561;86;29061;-60
2022/01/26 01:31:29;;;;;;;17.80;11.28;;;;;;;3.31;79.31;101406.45;2061605;86;29218;-60
2022/01/26 01:34:29;;;;;;;16.80;11.12;;;;;;;3.29;79.33;101415.70;2066193;86;32253;-60
2022/01/26 01:37:30;;;;;;;17.27;11.22;;;;;;;3.29;79.34;101410.41;2068072;86;33789;-59
2022/01/26 01:40:33;;;;;;;17.60;12.03;;;;;;;3.29;79.36;101406.44;2067726;86;30463;-60
2022/01/26 01:43:38;;;;;;;17.17;11.55;;;;;;;3.29;79.37;101414.84;2063201;86;27654;-60
2022/01/26 01:46:41;;;;;;;18.15;10.80;;;;;;;3.29;79.41;101413.52;2111979;83;29887;-62
2022/01/26 01:49:43;;;;;;;16.97;11.05;;;;;;;3.29;79.36;101413.52;2144461;82;31522;-59
2022/01/26 01:52:45;;;;;;;19.23;11.93;;;;;;;3.30;79.34;101411.30;2144451;82;34126;-60
2022/01/26 01:55:50;;;;;;;16.75;11.80;;;;;;;3.30;79.40;101408.66;2107414;84;29806;-60
2022/01/26 01:58:56;;;;;;;16.93;11.38;;;;;;;3.28;79.33;101411.29;2108393;84;28258;-60
2022/01/26 02:02:01;;;;;;;17.12;11.65;;;;;;;3.30;79.40;101407.33;2107800;84;29715;-60
2022/01/26 02:05:03;;;;;;;16.60;12.00;;;;;;;3.28;79.39;101400.70;2108575;83;33121;-61
2022/01/26 02:08:05;;;;;;;19.75;12.63;;;;;;;3.29;79.43;101404.24;2108071;84;33008;-59
2022/01/26 02:11:10;;;;;;;19.82;12.60;;;;;;;3.26;79.47;101397.62;2114870;84;30516;-60
2022/01/26 02:14:18;;;;;;;19.73;12.60;;;;;;;3.26;79.49;101407.76;2115816;84;28211;-60
2022/01/26 02:17:55;;;;;;;18.32;12.10;;;;;;;3.26;79.49;101411.73;2114437;84;29046;-59
2022/01/26 03:00:16;;;;;;;24.40;14.73;;;;;;;3.23;79.58;101389.67;2112774;84;30903;-60
2022/01/26 03:06:30;;;;;;;19.57;13.03;;;;;;;3.20;79.60;101385.28;2113092;84;28812;-60
2022/01/26 03:09:35;;;;;;;27.85;15.03;;;;;;;3.21;79.59;101390.12;2112204;84;31435;-60
2022/01/26 03:12:39;;;;;;;21.60;13.45;;;;;;;3.18;79.57;101384.39;2111253;84;32972;-60
2022/01/26 03:15:42;;;;;;;21.45;13.72;;;;;;;3.17;79.62;101386.60;2113000;84;29662;-61
2022/01/26 03:18:54;;;;;;;18.98;13.25;;;;;;;3.18;79.70;101394.53;2114212;84;27691;-60
2022/01/26 03:22:05;;;;;;;24.80;13.65;;;;;;;3.19;79.67;101387.48;2112746;84;29993;-60
2022/01/26 03:28:38;;;;;;;25.45;13.88;;;;;;;3.18;79.72;101387.04;2102088;84;33837;-60
2022/01/26 03:32:01;;;;;;;21.17;13.65;;;;;;;3.19;79.73;101389.67;2143117;82;30773;-60
2022/01/26 03:34:34;;;;;;;19.95;13.00;;;;;;;3.22;79.82;101388.81;2136738;83;27697;-61
2022/01/26 03:37:39;;;;;;;20.12;12.55;;;;;;;3.21;79.67;101387.05;2127431;83;30112;-60
2022/01/26 03:40:42;;;;;;;19.27;12.93;;;;;;;3.20;79.66;101386.60;2127815;83;31030;-62
2022/01/26 03:43:44;;;;;;;18.67;12.37;;;;;;;3.20;79.67;101390.57;2127657;83;33766;-62
2022/01/26 03:46:49;;;;;;;20.95;13.15;;;;;;;3.21;79.71;101394.98;2127438;83;30499;-62
2022/01/26 03:49:50;;;;;;;17.90;12.35;;;;;;;3.21;79.73;101392.34;2128159;83;27685;-61
2022/01/26 03:52:53;;;;;;;18.20;12.13;;;;;;;3.21;79.72;101391.02;2126942;83;29891;-61
2022/01/26 03:55:55;;;;;;;18.87;11.65;;;;;;;3.20;79.74;101390.57;2123790;83;32078;-61
2022/01/26 03:58:57;;;;;;;16.07;11.18;;;;;;;3.19;79.74;101388.34;2127172;83;34174;-61
2022/01/26 04:01:59;;;;;;;17.17;11.22;;;;;;;3.21;79.77;101395.41;2127804;83;29346;-61
2022/01/26 04:05:04;;;;;;;16.17;10.68;;;;;;;3.18;79.73;101394.53;2127790;83;27693;-61
2022/01/26 04:08:12;;;;;;;15.98;11.18;;;;;;;3.17;79.75;101390.57;2127731;83;28654;-61
2022/01/26 04:14:32;;;;;;;18.52;11.35;;;;;;;3.16;79.87;101398.08;2132038;83;34296;-61
2022/01/26 04:17:32;;;;;;;20.57;12.05;;;;;;;3.15;79.79;101397.17;2137267;82;29474;-61
2022/01/26 04:20:39;;;;;;;18.85;12.05;;;;;;;3.13;79.84;101394.09;2127846;83;27692;-61
2022/01/26 04:23:48;;;;;;;17.92;10.32;;;;;;;3.11;79.85;101386.17;2127518;83;29210;-61
2022/01/26 04:27:01;;;;;;;15.03;10.10;;;;;;;3.09;79.85;101389.68;2139111;81;31088;-63
2022/01/26 04:29:58;;;;;;;18.65;10.48;;;;;;;3.09;79.88;101385.70;2162459;81;33582;-62
2022/01/26 04:33:05;;;;;;;17.87;11.35;;;;;;;3.08;79.89;101389.24;2157279;81;29112;-62
2022/01/26 04:36:09;;;;;;;16.65;10.45;;;;;;;3.05;79.89;101392.78;2177071;80;28185;-62
2022/01/26 04:39:14;;;;;;;20.72;11.00;;;;;;;3.06;79.93;101387.93;2136638;83;28666;-60
2022/01/26 04:42:20;;;;;;;18.80;11.00;;;;;;;3.06;79.94;101387.06;2174387;80;31416;-62
2022/01/26 04:45:16;;;;;;;16.95;11.48;;;;;;;3.04;79.99;101385.30;2171211;81;32977;-62
2022/01/26 04:48:19;;;;;;;18.23;11.08;;;;;;;3.04;79.99;101382.65;2171633;82;29246;-61
2022/01/26 04:51:21;;;;;;;19.82;11.05;;;;;;;3.05;79.99;101388.81;2171730;81;27688;-61
2022/01/26 04:54:23;;;;;;;20.15;11.95;;;;;;;3.08;80.09;101389.24;2171431;82;28461;-61
2022/01/26 04:57:24;;;;;;;18.42;10.05;;;;;;;3.08;80.04;101383.94;2170469;82;31910;-62
2022/01/26 05:00:26;;;;;;;14.23;9.63;;;;;;;3.06;79.96;101374.70;2167488;82;33335;-61
2022/01/26 05:03:28;;;;;;;17.50;10.88;;;;;;;3.06;79.99;101371.18;2137792;83;29699;-62
2022/01/26 05:06:29;;;;;;;17.42;10.85;;;;;;;3.03;79.98;101363.67;2138088;83;27503;-62
2022/01/26 05:09:31;;;;;;;20.20;11.28;;;;;;;3.02;80.01;101363.66;2138051;82;29048;-62
2022/01/26 05:12:35;;;;;;;14.30;10.45;;;;;;;3.05;80.07;101374.25;2161731;82;32248;-61
2022/01/26 05:15:37;;;;;;;13.68;9.45;;;;;;;3.06;80.07;101366.75;2171300;82;34276;-61
2022/01/26 05:18:39;;;;;;;16.90;10.15;;;;;;;3.06;80.13;101366.75;2171656;82;30485;-61
2022/01/26 05:21:43;;;;;;;19.35;10.75;;;;;;;3.09;80.19;101360.13;2161947;82;27631;-61
2022/01/26 05:24:45;;;;;;;15.60;9.68;;;;;;;3.10;80.12;101353.95;2136860;82;29162;-62
2022/01/26 05:27:47;;;;;;;16.15;10.18;;;;;;;3.12;80.19;101353.94;2152248;81;31398;-62
2022/01/26 05:30:49;;;;;;;18.32;12.00;;;;;;;3.12;80.12;101349.55;2172507;81;34177;-62
2022/01/26 05:33:50;;;;;;;18.25;11.55;;;;;;;3.14;80.11;101349.53;2141073;81;29701;-62
2022/01/26 05:36:52;;;;;;;18.02;11.15;;;;;;;3.14;80.13;101354.83;2138083;82;27586;-62
2022/01/26 05:39:54;;;;;;;16.25;10.13;;;;;;;3.12;80.10;101354.84;2137520;82;30058;-61
2022/01/26 05:42:56;;;;;;;18.70;10.38;;;;;;;3.13;80.11;101353.96;2154324;81;31970;-62
2022/01/26 05:46:02;;;;;;;24.15;13.30;;;;;;;3.14;80.07;101355.72;2173506;81;32852;-62
2022/01/26 05:49:01;;;;;;;18.73;12.43;;;;;;;3.13;80.07;101346.02;2174393;80;29498;-62
2022/01/26 05:52:04;;;;;;;19.17;11.88;;;;;;;3.12;80.10;101340.28;2173330;81;27595;-63
2022/01/26 05:55:07;;;;;;;17.10;10.50;;;;;;;3.13;80.10;101338.08;2171312;82;29943;-62
2022/01/26 05:58:09;;;;;;;15.40;9.35;;;;;;;3.15;80.12;101338.05;2171693;82;31196;-62
2022/01/26 06:01:12;;;;;;;15.55;9.00;;;;;;;3.15;80.05;101343.35;2171700;82;34109;-62
2022/01/26 06:04:14;;;;;;;17.20;10.18;;;;;;;3.16;80.11;101341.14;2150006;82;29873;-62
2022/01/26 06:07:16;;;;;;;14.15;9.35;;;;;;;3.16;80.12;101345.12;2137828;82;27723;-62
2022/01/26 06:10:18;;;;;;;13.43;8.43;;;;;;;3.16;80.07;101343.80;2080414;84;29260;-62
2022/01/26 06:13:19;;;;;;;13.80;8.43;;;;;;;3.16;80.12;101346.44;2173093;81;31964;-63
2022/01/26 06:16:23;;;;;;;14.63;9.68;;;;;;;3.14;80.07;101346.45;2161478;82;34205;-62
2022/01/26 06:19:24;;;;;;;15.20;9.90;;;;;;;3.16;80.09;101345.98;2137809;82;29481;-62
2022/01/26 06:22:26;;;;;;;16.42;9.85;;;;;;;3.16;80.08;101346.44;2137660;83;27679;-61
2022/01/26 06:25:28;;;;;;;14.47;9.30;;;;;;;3.16;80.12;101341.14;2170962;81;29209;-62
2022/01/26 06:28:30;;;;;;;14.18;9.38;;;;;;;3.15;80.08;101340.70;2172095;81;31206;-61
2022/01/26 06:31:34;;;;;;;14.53;9.38;;;;;;;3.13;80.09;101340.72;2172243;82;34318;-62
2022/01/26 06:34:39;;;;;;;12.95;8.40;;;;;;;3.14;80.12;101341.16;2172123;81;30125;-61
2022/01/26 06:37:40;;;;;;;15.53;8.85;;;;;;;3.18;80.23;101346.87;2170331;82;27754;-61
2022/01/26 06:40:41;;;;;;;17.42;9.08;;;;;;;3.19;80.20;101345.12;2172105;81;29046;-61
2022/01/26 06:43:51;;;;;;;16.25;9.15;;;;;;;3.17;80.03;101344.23;2171417;82;31520;-62
2022/01/26 06:47:15;;;;;;;15.85;9.83;;;;;;;3.15;80.13;101340.25;2147694;80;34336;-61
2022/01/26 06:50:00;;;;;;;17.95;10.23;;;;;;;3.15;80.08;101340.25;2141142;82;30499;-61
2022/01/26 06:53:01;;;;;;;14.30;11.28;;;;;;;3.15;80.14;101332.30;2139910;83;27666;-61
2022/01/26 06:56:04;;;;;;;17.67;10.82;;;;;;;3.15;80.16;101327.47;2097829;84;29922;-61
2022/01/26 06:59:06;;;;;;;16.30;10.75;;;;;;;3.14;80.13;101335.87;2146429;83;31412;-61
2022/01/26 07:02:09;;;;;;;21.02;11.45;;;;;;;3.15;80.25;101334.09;2146069;83;34386;-62
2022/01/26 07:05:12;;;;;;;18.05;12.18;;;;;;;3.15;80.19;101326.14;2103140;84;29914;-61
2022/01/26 07:08:14;;;;;;;19.23;11.68;;;;;;;3.15;80.26;101327.01;2108436;84;27695;-61
2022/01/26 07:11:16;;;;;;;19.70;12.20;;;;;;;3.17;80.26;101332.32;2108268;84;29473;-61
2022/01/26 07:24:20;;;;;;;24.63;14.73;;;;;;;3.23;80.30;101337.58;2107705;83;27643;-63
2022/01/26 07:27:22;;;;;;;27.58;14.55;;;;;;;3.25;80.29;101340.25;2107419;84;29900;-62
2022/01/26 07:30:24;;;;;;;29.27;15.98;;;;;;;3.29;80.42;101340.69;2108096;84;32252;-63
2022/01/26 07:33:25;;;;;;;26.95;15.63;;;;;;;3.30;80.32;101338.48;2107184;83;33727;-63
2022/01/26 07:36:27;;;;;;;21.50;13.48;;;;;;;3.31;80.33;101349.05;2105980;84;30529;-62
2022/01/26 07:39:49;;;;;;;23.95;13.88;;;;;;;3.33;80.33;101345.06;2103274;84;27644;-62
2022/01/26 07:42:48;;;;;;;22.05;14.40;;;;;;;3.33;80.31;101345.96;2145755;82;29563;-62
2022/01/26 07:45:50;;;;;;;23.98;13.98;;;;;;;3.30;80.28;101341.99;2146418;82;31972;-62
2022/01/26 07:48:52;;;;;;;23.10;13.55;;;;;;;3.32;80.30;101341.97;2101931;84;34285;-63
2022/01/26 07:51:55;;;;;;;25.52;14.70;;;;;;;3.31;80.43;101337.59;2135765;83;29446;-62
2022/01/26 07:54:56;;;;;;;26.97;15.13;;;;;;;3.33;80.50;101335.79;2070868;85;27672;-63
2022/01/26 07:57:59;;;;;;;27.80;14.28;;;;;;;3.37;80.52;101340.66;2070516;85;29173;-63
2022/01/26 08:01:01;;;;;;;28.57;15.20;;;;;;;3.39;80.54;101338.44;2070359;86;31404;-62
2022/01/26 08:04:04;;;;;;;25.10;14.78;;;;;;;3.44;80.57;101344.61;2070374;85;34083;-62
2022/01/26 08:07:06;;;;;;;24.87;15.28;;;;;;;3.45;80.43;101341.50;2112798;83;29336;-62
2022/01/26 08:10:10;;;;;;;28.70;16.17;;;;;;;3.47;80.48;101341.95;2178914;81;27736;-62
2022/01/26 08:13:12;;;;;;;25.43;15.98;;;;;;;3.48;80.48;101345.02;2177647;81;29924;-62
2022/01/26 08:16:14;;;;;;;27.70;15.53;;;;;;;3.51;80.51;101345.47;2163240;81;32566;-62
2022/01/26 08:19:18;;;;;;;29.30;16.30;;;;;;;3.53;80.54;101350.32;2172048;81;34085;-62
2022/01/26 08:22:20;;;;;;;28.70;15.78;;;;;;;3.56;80.53;101342.80;2168169;81;30343;-63
2022/01/26 08:25:22;;;;;;;33.50;19.30;;;;;;;3.55;80.41;101348.55;2099026;84;27665;-62
2022/01/26 08:28:38;;;;;;;28.52;17.00;;;;;;;3.57;80.47;101343.23;2135579;82;28832;-62
2022/01/26 08:31:34;;;;;;;26.10;15.88;;;;;;;3.63;80.56;101339.25;2108695;83;32525;-62
2022/01/26 08:34:37;;;;;;;29.18;15.98;;;;;;;3.65;80.45;101342.31;2103774;84;33603;-62
2022/01/26 08:37:39;;;;;;;31.02;16.93;;;;;;;3.66;80.47;101341.86;2108018;84;30347;-62
2022/01/26 08:40:44;;;;;;;30.82;17.02;;;;;;;3.71;80.59;101340.54;2125450;83;27793;-62
2022/01/26 08:43:46;;;;;;;30.17;16.48;;;;;;;3.77;80.69;101340.06;2178576;81;30078;-61
2022/01/26 08:46:49;;;;;;;27.82;15.90;;;;;;;3.83;80.54;101337.83;2171700;81;31867;-62
2022/01/26 08:49:51;;;;;;;30.12;15.88;;;;;;;3.86;80.52;101336.48;2172232;81;34118;-62
2022/01/26 08:52:55;;;;;;;30.23;17.12;;;;;;;3.93;80.49;101341.31;2172536;81;29494;-62
2022/01/26 08:55:58;;;;;;;31.02;14.98;;;;;;;3.99;80.36;101343.91;2114680;83;28199;-62
2022/01/26 08:59:00;;;;;;;25.20;13.78;;;;;;;4.04;80.32;101335.95;2102223;84;28690;-61
2022/01/26 09:02:03;;;;;;;27.60;14.60;;;;;;;4.06;80.19;101340.34;2146520;82;31160;-61
2022/01/26 09:05:08;;;;;;;25.05;14.73;;;;;;;4.08;80.08;101334.59;2127793;82;34093;-61
2022/01/26 09:08:10;;;;;;;28.87;17.48;;;;;;;4.11;80.02;101335.01;2124300;83;29321;-62
2022/01/26 09:11:12;;;;;;;31.37;19.50;;;;;;;4.14;79.98;101341.63;2089506;85;27644;-62
2022/01/26 09:14:20;;;;;;;37.93;25.27;;;;;;;4.17;80.00;101342.94;2086293;84;28794;-62
2022/01/26 09:17:20;;;;;;;41.05;26.75;;;;;;;4.17;79.80;101348.24;2146219;82;31025;-62
2022/01/26 09:20:21;;;;;;;32.53;21.25;;;;;;;4.18;79.81;101347.36;2146509;82;33843;-63
2022/01/26 09:23:23;;;;;;;26.17;16.42;;;;;;;4.22;79.87;101353.52;2140348;82;29677;-62
2022/01/26 09:26:27;;;;;;;26.87;16.75;;;;;;;4.21;79.68;101349.09;2122964;83;27673;-62
2022/01/26 09:29:29;;;;;;;25.02;15.70;;;;;;;4.23;79.79;101348.65;2130710;83;29650;-62
2022/01/26 09:32:31;;;;;;;26.27;16.77;;;;;;;4.24;79.63;101351.73;2172480;81;32448;-62
2022/01/26 09:35:35;;;;;;;23.87;14.13;;;;;;;4.24;79.75;101353.93;2170752;81;33025;-63
2022/01/26 09:38:39;;;;;;;24.80;14.73;;;;;;;4.26;79.64;101347.30;2161020;82;29174;-62
2022/01/26 09:41:41;;;;;;;27.75;15.80;;;;;;;4.30;79.75;101345.51;2095441;85;27783;-63
2022/01/26 09:44:44;;;;;;;27.30;16.00;;;;;;;4.32;79.66;101345.92;2142142;82;29054;-63
2022/01/26 09:47:46;;;;;;;30.95;16.60;;;;;;;4.37;79.68;101343.27;2153199;82;31939;-63
2022/01/26 09:50:54;;;;;;;25.20;14.43;;;;;;;4.39;79.62;101341.02;2153145;82;34177;-63
2022/01/26 09:54:04;;;;;;;23.80;14.07;;;;;;;4.38;79.44;101331.76;2153933;82;30740;-63
2022/01/26 09:57:07;;;;;;;25.93;15.17;;;;;;;4.41;79.41;101326.41;2134842;83;27676;-63
2022/01/26 10:00:10;;;;;;;25.05;13.93;;;;;;;4.45;79.48;101325.95;2134268;83;29538;-63
2022/01/26 10:03:13;;;;;;;21.52;12.75;;;;;;;4.53;79.49;101322.78;2134594;83;31818;-63
2022/01/26 10:06:27;;;;;;;22.42;14.13;;;;;;;4.58;79.33;101320.98;2171979;81;32752;-63
2022/01/26 10:16:39;;;;;;;23.30;13.90;;;;;;;4.83;79.32;101312.78;2172659;81;28703;-63
2022/01/26 10:19:21;;;;;;;25.72;15.58;;;;;;;4.92;79.33;101314.47;2176285;80;31104;-63
2022/01/26 10:22:32;;;;;;;23.63;13.90;;;;;;;4.96;78.92;101312.23;2161495;81;34216;-62
2022/01/26 10:25:34;;;;;;;30.02;17.25;;;;;;;4.90;78.67;101293.69;2134816;83;29364;-62
2022/01/26 10:28:57;;;;;;;27.82;16.02;;;;;;;5.07;78.72;101301.03;2161273;81;27659;-63
2022/01/26 10:32:01;;;;;;;51.25;22.98;;;;;;;5.10;78.55;101307.66;2169962;81;28695;-63
2022/01/26 10:35:06;;;;;;;59.58;26.20;;;;;;;5.12;78.38;101300.55;2170615;81;31249;-63
2022/01/26 10:38:08;;;;;;;65.03;26.85;;;;;;;;;;2172940;81;33759;-62
2022/01/26 10:41:20;;;;;;;65.25;28.67;;;;;;;5.31;78.30;101305.66;2165079;81;30520;-62
2022/01/26 10:44:42;;;;;;;55.50;31.30;;;;;;;5.37;78.07;101298.95;2137267;82;27669;-63
2022/01/26 10:47:46;;;;;;;49.80;21.90;;;;;;;5.42;77.98;101301.09;2166576;82;29494;-62
2022/01/26 10:51:22;;;;;;;64.67;28.00;;;;;;;5.45;77.71;101301.06;2170419;82;31920;-62
2022/01/26 10:54:09;;;;;;;52.90;23.98;;;;;;;5.48;77.65;101293.48;2171222;81;32996;-62
2022/01/26 10:57:09;;;;;;;81.40;35.20;;;;;;;5.52;77.55;101288.57;2171066;81;30172;-62
2022/01/26 11:00:12;;;;;;;46.98;23.02;;;;;;;5.54;77.34;101291.23;2170556;81;27699;-62
2022/01/26 11:03:14;;;;;;;46.98;22.45;;;;;;;5.57;77.15;101288.50;2145894;82;28517;-62
2022/01/26 11:06:19;;;;;;;49.10;24.70;;;;;;;5.59;77.14;101286.70;2137218;82;32178;-61
2022/01/26 11:09:25;;;;;;;44.93;23.73;;;;;;;5.62;77.12;101296.88;2159910;82;32798;-61
2022/01/26 11:12:31;;;;;;;27.48;16.07;;;;;;;5.62;76.96;101292.89;2171077;82;29422;-61
2022/01/26 11:15:34;;;;;;;21.95;12.82;;;;;;;5.59;76.57;101288.94;2171154;82;27598;-62
2022/01/26 11:18:54;;;;;;;26.23;14.53;;;;;;;5.53;76.48;101298.30;2145788;82;29923;-62
2022/01/26 11:22:08;;;;;;;26.62;16.27;;;;;;;5.52;76.42;101295.67;2139959;82;31008;-61
2022/01/26 11:25:12;;;;;;;15.90;11.40;;;;;;;5.46;76.53;101295.31;2166897;82;33763;-61
2022/01/26 11:28:21;;;;;;;18.82;11.10;;;;;;;5.40;76.29;101289.59;2164239;81;29372;-61
2022/01/26 11:31:24;;;;;;;18.85;10.63;;;;;;;5.37;76.47;101287.00;2172672;81;27439;-62
2022/01/26 11:34:27;;;;;;;18.32;11.63;;;;;;;5.33;76.30;101288.80;2172272;81;29529;-61
2022/01/26 11:37:43;;;;;;;20.32;13.03;;;;;;;5.32;76.50;101291.02;2171123;81;31927;-62
2022/01/26 11:48:02;;;;;;;13.50;10.33;;;;;;;5.20;76.22;101284.98;2147390;81;27649;-62
2022/01/26 11:51:09;;;;;;;9.33;7.28;;;;;;;5.14;76.09;101289.89;2146113;82;27719;-62
2022/01/26 11:54:19;;;;;;;15.35;9.35;;;;;;;5.08;75.94;101284.67;2146449;82;32201;-61
2022/01/26 11:57:39;;;;;;;20.57;13.40;;;;;;;5.04;76.21;101279.84;2162094;82;33034;-62
2022/01/26 12:01:07;;;;;;;17.30;11.05;;;;;;;5.03;76.12;101271.45;2170287;81;30453;-63
2022/01/26 12:04:05;;;;;;;12.35;9.35;;;;;;;4.99;76.19;101270.58;2166069;81;27688;-62
2022/01/26 12:07:22;;;;;;;12.03;9.38;;;;;;;4.98;75.98;101274.59;2139380;82;28815;-63
2022/01/26 12:10:29;;;;;;;10.70;7.17;;;;;;;4.93;75.70;101273.32;2140056;82;31191;-62
2022/01/26 12:13:33;;;;;;;9.85;7.97;;;;;;;4.85;75.55;101277.38;2139452;82;33308;-61
2022/01/26 12:16:42;;;;;;;10.80;7.80;;;;;;;4.79;75.75;101276.11;2165905;82;29360;-62
2022/01/26 12:20:05;;;;;;;11.48;8.05;;;;;;;4.76;75.68;101283.23;2156487;81;27666;-61
2022/01/26 12:36:49;;;;;;;9.58;6.72;;;;;;;4.61;75.69;101265.23;2176407;81;28257;-62
2022/01/26 12:43:04;;;;;;;10.00;6.40;;;;;;;4.55;75.56;101271.45;2171965;81;31873;-61
2022/01/26 12:45:59;;;;;;;9.38;8.00;;;;;;;4.54;75.61;101269.72;2159159;81;33651;-62
2022/01/26 12:49:13;;;;;;;8.38;5.72;;;;;;;4.57;75.61;101264.81;2139387;82;30328;-62
2022/01/26 12:52:15;;;;;;;12.25;9.33;;;;;;;4.56;75.53;101253.77;2145014;82;27651;-62
2022/01/26 12:55:24;;;;;;;20.60;12.58;;;;;;;4.57;75.68;101258.18;2168063;82;29952;-62
2022/01/26 12:58:29;;;;;;;82.27;48.23;;;;;;;4.56;75.57;101261.27;2170268;81;31013;-62
2022/01/26 13:01:31;;;;;;;18.15;12.40;;;;;;;4.57;75.66;101266.14;2170684;82;33908;-61
2022/01/26 13:04:34;;;;;;;13.18;9.15;;;;;;;4.59;75.53;101264.36;2165497;82;30542;-62
2022/01/26 13:07:37;;;;;;;13.75;9.23;;;;;;;4.56;75.24;101267.03;2150922;81;27743;-61
2022/01/26 13:10:40;;;;;;;11.78;7.67;;;;;;;4.51;75.29;101256.90;2172384;81;28659;-61
2022/01/26 13:13:42;;;;;;;16.12;9.03;;;;;;;4.49;75.29;101262.23;2161729;81;31021;-61
2022/01/26 13:26:49;;;;;;;9.78;6.53;;;;;;;4.40;75.05;101257.89;2126525;82;29935;-63
2022/01/26 13:30:00;;;;;;;10.65;6.30;;;;;;;4.40;75.09;101258.31;2139429;83;32277;-63
2022/01/26 13:33:14;;;;;;;14.95;8.43;;;;;;;4.40;75.11;101260.54;2130278;83;34051;-61
2022/01/26 13:39:31;;;;;;;12.20;7.05;;;;;;;4.46;74.90;101239.70;2047326;86;28112;-62
2022/01/26 13:52:24;;;;;;;8.70;5.97;;;;;;;4.48;74.85;101241.00;2054400;86;31356;-63
2022/01/26 14:01:30;;;;;;;10.32;7.37;;;;;;;4.52;74.95;101237.44;2064177;86;32224;-65
2022/01/26 14:04:32;;;;;;;10.05;7.85;;;;;;;4.55;74.83;101238.73;2031290;87;33008;-64
2022/01/26 14:07:34;;;;;;;7.17;5.40;;;;;;;4.51;74.61;101243.63;2064029;86;30203;-63
2022/01/26 14:10:36;;;;;;;8.93;6.70;;;;;;;4.44;74.71;101244.14;2063855;86;27816;-64
2022/01/26 14:13:39;;;;;;;10.35;6.42;;;;;;;4.41;74.74;101236.20;2061815;86;29582;-64
2022/01/26 14:16:45;;;;;;;8.90;6.65;;;;;;;4.41;74.86;101231.79;2039972;86;31452;-66
2022/01/26 14:23:16;;;;;;;18.45;10.45;;;;;;;4.39;74.61;101235.33;2062426;86;30502;-65
2022/01/26 14:26:10;;;;;;;16.80;10.30;;;;;;;4.34;74.68;101242.47;2060050;86;28286;-62
2022/01/26 14:29:19;;;;;;;24.20;12.85;;;;;;;4.32;74.70;101241.14;2061620;86;29623;-62
2022/01/26 14:55:27;;;;;;;12.15;8.60;;;;;;;3.86;74.02;101246.80;2133446;83;30523;-62
2022/01/26 15:41:14;;;;;;;22.32;15.50;;;;;;;3.25;74.14;101207.84;2076532;85;33393;-64
2022/01/26 15:44:40;;;;;;;18.20;12.03;;;;;;;3.22;74.32;101195.94;2075182;84;29866;-64
2022/01/26 15:50:59;;;;;;;19.50;11.12;;;;;;;3.19;74.24;101197.70;2078495;85;28261;-62
2022/01/26 16:07:28;;;;;;;21.48;14.65;;;;;;;3.13;74.19;101188.91;1970303;90;29276;-62
2022/01/26 16:20:00;;;;;;;13.95;8.75;;;;;;;3.02;73.81;101184.98;1923534;92;27935;-61
2022/01/26 18:15:31;;;;;;;31.33;16.90;;;;;;;2.69;74.19;101169.66;1916807;91;28047;-61
2022/01/26 18:51:39;;;;;;;20.52;12.63;;;;;;;2.58;74.33;101189.52;2058576;85;30126;-60
2022/01/26 18:54:41;;;;;;;20.95;10.98;;;;;;;2.58;74.35;101186.88;2083291;84;31621;-61
2022/01/26 18:57:44;;;;;;;16.32;11.78;;;;;;;2.55;74.09;101192.20;2112490;84;33422;-61
2022/01/26 19:00:45;;;;;;;18.57;12.63;;;;;;;2.51;73.95;101189.98;2170747;81;30135;-62
2022/01/26 19:03:47;;;;;;;22.85;14.05;;;;;;;2.45;73.93;101191.33;2170629;82;27666;-60
2022/01/26 19:06:52;;;;;;;20.15;12.98;;;;;;;2.40;73.88;101177.23;2144504;82;29904;-60
2022/01/26 19:09:53;;;;;;;26.20;14.98;;;;;;;2.36;73.97;101180.33;2137038;82;31177;-62
2022/01/26 19:12:56;;;;;;;20.95;13.75;;;;;;;2.33;74.02;101174.14;2136882;82;33819;-61
2022/01/26 19:16:08;;;;;;;24.90;13.78;;;;;;;2.32;74.06;101166.66;2170694;81;30456;-61
2022/01/26 19:19:24;;;;;;;19.48;11.40;;;;;;;2.32;73.99;101153.91;2169080;81;27821;-61
2022/01/26 19:25:44;;;;;;;18.37;12.98;;;;;;;2.26;74.04;101160.95;2140880;82;31421;-59
2022/01/26 19:28:45;;;;;;;22.87;13.03;;;;;;;2.27;74.16;101164.45;2148576;81;33499;-60
2022/01/26 19:45:02;;;;;;;18.37;11.73;;;;;;;2.19;74.31;101169.75;2170429;81;32757;-62
2022/01/26 19:50:54;;;;;;;17.75;10.63;;;;;;;2.16;74.42;101164.47;2198186;80;27716;-62
2022/01/26 19:53:56;;;;;;;16.55;10.05;;;;;;;2.12;74.55;101161.41;2162077;81;28661;-60
2022/01/26 19:56:58;;;;;;;18.00;11.22;;;;;;;2.08;74.65;101160.97;2150626;81;32304;-62
2022/01/26 20:00:00;;;;;;;15.48;9.80;;;;;;;2.03;74.65;101161.39;2151630;82;33914;-62
2022/01/26 20:03:02;;;;;;;17.90;10.88;;;;;;;1.97;74.77;101165.83;2153334;82;30651;-60
2022/01/26 20:06:07;;;;;;;14.25;9.40;;;;;;;1.90;74.79;101168.47;2134762;82;28458;-62
2022/01/26 20:12:32;;;;;;;16.23;9.63;;;;;;;1.83;74.98;101168.87;2171035;82;31829;-61
2022/01/26 20:15:28;;;;;;;18.30;11.65;;;;;;;1.81;74.97;101162.73;2158426;81;34187;-64
2022/01/26 20:18:31;;;;;;;17.17;10.10;;;;;;;1.77;74.83;101163.61;2153438;82;29700;-62
2022/01/26 20:21:33;;;;;;;21.17;11.18;;;;;;;1.75;74.78;101171.52;2147312;82;27824;-62
2022/01/26 20:24:37;;;;;;;17.55;10.95;;;;;;;1.72;74.70;101159.65;2159455;82;29909;-62
2022/01/26 20:27:39;;;;;;;17.92;11.05;;;;;;;1.70;74.79;101152.16;2170560;82;31051;-61
2022/01/26 20:30:45;;;;;;;17.70;11.40;;;;;;;1.70;74.67;101158.77;2171107;81;32962;-61
2022/01/26 20:33:49;;;;;;;22.27;11.35;;;;;;;1.70;74.64;101145.98;2166345;81;29519;-62
2022/01/26 20:36:51;;;;;;;20.05;11.25;;;;;;;1.60;74.42;101130.14;2169745;81;27687;-63
2022/01/26 20:39:54;;;;;;;18.90;11.40;;;;;;;1.71;74.69;101141.14;2171172;81;29138;-64
2022/01/26 20:42:56;;;;;;;17.62;11.43;;;;;;;1.73;74.64;101143.34;2172553;81;31037;-64
2022/01/26 20:46:00;;;;;;;16.77;11.43;;;;;;;1.71;74.54;101134.53;2172348;81;32959;-62
2022/01/26 20:49:04;;;;;;;20.55;11.63;;;;;;;1.72;74.68;101138.52;2161925;81;30607;-63
2022/01/26 20:52:06;;;;;;;18.77;10.85;;;;;;;1.73;74.61;101151.27;2166651;81;27678;-64
2022/01/26 20:55:10;;;;;;;17.95;11.28;;;;;;;1.69;74.56;101145.11;2165776;81;28666;-61
2022/01/26 20:58:12;;;;;;;22.90;12.88;;;;;;;1.68;74.64;101163.16;2157459;81;31020;-62
2022/01/26 21:01:16;;;;;;;20.43;12.18;;;;;;;1.69;74.78;101142.47;2172260;81;33082;-61
2022/01/26 21:04:18;;;;;;;21.75;12.88;;;;;;;1.70;74.65;101134.09;2173756;81;29380;-61
2022/01/26 21:07:20;;;;;;;21.62;12.58;;;;;;;1.70;74.74;101132.34;2167683;81;27800;-62